Zanesville Municipal (ZZV)

 

Airport Diagram
No Airport Diagram Available
Current Weather/Forecast (MVFR Conditions)
METAR KZZV 071353Z AUTO 29006KT 5SM -RA BR FEW030 BKN037 OVC050 08/07 A2993 RMK AO2 SLP137 P0004 T00830072
TAF KZZV 071133Z 0712/0812 31003KT 4SM -SHRA OVC010 FM071500 32008KT P6SM VCSH BKN015 FM071800 31011KT P6SM SCT040 FM080000 27003KT P6SM VCSH BKN035

Airport Information

All Charts
General
Chart Name View
TAKEOFF MINIMUMS
ALTERNATE MINIMUMS

Approaches
Chart Name Download
ILS OR LOC RWY 22
RNAV (GPS) RWY 04
RNAV (GPS) RWY 22
VOR RWY 04
VOR RWY 22


Airport Statistics
Departures Arrivals Local
All Collected Stats since June 2016: 16 14 0
2021 Stats: 1 1 0
May Stats: 0 0 0

Inbound Traffic (Arrivals) - 0

No inbound traffic.


Outbound Traffic (Departures) - 0

No outbound traffic.


Local Traffic (Pattern) - 0

No local traffic.